Time;durP1;ratioP1;P1;durP2;ratioP2;P2;SDS_P1;SDS_P2;PMS_P1;PMS_P2;Temp;Humidity;BMP_temperature;BMP_pressure;BME280_temperature;BME280_humidity;BME280_pressure;Samples;Min_cycle;Max_cycle;Signal;HPM_P1;HPM_P2
2022/10/12 00:00:39;;;;;;;14.88;10.60;;;;;;;;;;5070683;28;20049;-91
2022/10/12 00:03:05;;;;;;;13.70;9.38;;;;;;;;;;5053126;28;20052;-91
2022/10/12 00:05:32;;;;;;;11.52;8.98;;;;;;;;;;5052651;28;20048;-91
2022/10/12 00:07:58;;;;;;;17.30;10.65;;;;;;;;;;5052524;28;20049;-91
2022/10/12 00:10:26;;;;;;;18.48;11.30;;;;;;;;;;5065623;28;20052;-90
2022/10/12 00:12:53;;;;;;;17.77;11.32;;;;;;;;;;5072719;28;20044;-91
2022/10/12 00:15:19;;;;;;;15.15;9.95;;;;;;;;;;5072416;28;20093;-90
2022/10/12 00:17:46;;;;;;;16.88;11.35;;;;;;;;;;5072135;28;20106;-90
2022/10/12 00:20:13;;;;;;;16.15;11.85;;;;;;;;;;5060424;28;20049;-90
2022/10/12 00:22:39;;;;;;;14.88;10.60;;;;;;;;;;5052479;28;20053;-90
2022/10/12 00:25:06;;;;;;;15.07;11.27;;;;;;;;;;5051730;28;20562;-90
2022/10/12 00:27:34;;;;;;;16.67;9.98;;;;;;;;;;5052234;28;20045;-90
2022/10/12 00:30:01;;;;;;;13.55;10.00;;;;;;;;;;5061367;28;20052;-91
2022/10/12 00:32:27;;;;;;;14.82;12.65;;;;;;;;;;5072140;28;20049;-91
2022/10/12 00:34:54;;;;;;;15.68;12.77;;;;;;;;;;5064152;28;20110;-90
2022/10/12 00:37:20;;;;;;;17.58;12.68;;;;;;;;;;5052273;28;20045;-91
2022/10/12 00:39:48;;;;;;;18.70;13.73;;;;;;;;;;5052081;28;20049;-90
2022/10/12 00:42:14;;;;;;;16.35;11.18;;;;;;;;;;5052329;28;20080;-91
2022/10/12 00:44:44;;;;;;;21.75;12.23;;;;;;;;;;5052221;28;20098;-89
2022/10/12 00:47:20;;;;;;;15.43;11.18;;;;;;;;;;5052236;28;20049;-91
2022/10/12 00:49:50;;;;;;;14.88;11.32;;;;;;;;;;5052210;28;20064;-91
2022/10/12 00:52:17;;;;;;;19.65;12.25;;;;;;;;;;5052543;28;20175;-91
2022/10/12 00:54:46;;;;;;;20.50;13.57;;;;;;;;;;5052289;28;20057;-90
2022/10/12 00:57:13;;;;;;;17.02;11.57;;;;;;;;;;5052511;28;20570;-91
2022/10/12 00:59:43;;;;;;;17.15;10.65;;;;;;;;;;5056491;28;20106;-91
2022/10/12 01:02:11;;;;;;;15.05;10.27;;;;;;;;;;5073937;28;20488;-91
2022/10/12 01:04:38;;;;;;;18.38;9.93;;;;;;;;;;5072850;28;20049;-91
2022/10/12 01:07:05;;;;;;;18.45;12.85;;;;;;;;;;5056276;28;20099;-91
2022/10/12 01:09:32;;;;;;;12.75;8.90;;;;;;;;;;5056517;28;20106;-92
2022/10/12 01:11:58;;;;;;;11.88;9.13;;;;;;;;;;5056348;28;20045;-91
2022/10/12 01:14:25;;;;;;;14.35;11.75;;;;;;;;;;5056203;28;20455;-91
2022/10/12 01:16:54;;;;;;;14.32;12.05;;;;;;;;;;5056006;28;20056;-91
2022/10/12 01:19:30;;;;;;;14.60;9.25;;;;;;;;;;5056529;28;20103;-92
2022/10/12 01:21:59;;;;;;;16.15;11.32;;;;;;;;;;5075986;28;20041;-91
2022/10/12 01:24:34;;;;;;;19.88;12.90;;;;;;;;;;5075592;28;20056;-91
2022/10/12 01:27:02;;;;;;;15.40;9.65;;;;;;;;;;5075875;28;20049;-92
2022/10/12 01:29:43;;;;;;;16.40;10.73;;;;;;;;;;5075500;28;20131;-91
2022/10/12 01:32:13;;;;;;;16.02;10.70;;;;;;;;;;5073010;28;20102;-91
2022/10/12 01:34:44;;;;;;;14.77;10.38;;;;;;;;;;5075458;28;20496;-91
2022/10/12 01:37:10;;;;;;;;;;;;;;;;;;5076412;28;20550;-92
2022/10/12 01:39:39;;;;;;;14.98;10.20;;;;;;;;;;5075983;28;19920;-92
2022/10/12 01:42:08;;;;;;;16.13;10.32;;;;;;;;;;5075939;28;20049;-92
2022/10/12 01:44:34;;;;;;;12.27;9.10;;;;;;;;;;5075498;28;20087;-92
2022/10/12 01:47:01;;;;;;;16.10;10.38;;;;;;;;;;5075551;28;20553;-92
2022/10/12 01:49:30;;;;;;;14.68;9.65;;;;;;;;;;5076168;28;20052;-92
2022/10/12 01:52:17;;;;;;;14.65;9.48;;;;;;;;;;5055680;28;20455;-93
2022/10/12 01:54:53;;;;;;;11.27;8.90;;;;;;;;;;5050476;28;20102;-92
2022/10/12 01:57:25;;;;;;;13.18;8.88;;;;;;;;;;5055575;28;20099;-92
2022/10/12 01:59:57;;;;;;;9.88;7.22;;;;;;;;;;5055428;28;20060;-92
2022/10/12 02:02:26;;;;;;;12.63;9.73;;;;;;;;;;5055355;28;20087;-92
2022/10/12 02:04:58;;;;;;;13.15;9.88;;;;;;;;;;5055325;28;20107;-92
2022/10/12 02:07:30;;;;;;;12.48;9.45;;;;;;;;;;5055352;28;20504;-92
2022/10/12 02:09:57;;;;;;;11.20;8.00;;;;;;;;;;5055185;28;20115;-92
2022/10/12 02:12:25;;;;;;;14.88;9.07;;;;;;;;;;5055093;28;20090;-91
2022/10/12 02:14:54;;;;;;;13.30;9.35;;;;;;;;;;5054148;28;20405;-92
2022/10/12 02:17:21;;;;;;;12.00;8.38;;;;;;;;;;5055159;28;20052;-92
2022/10/12 02:19:50;;;;;;;14.75;9.70;;;;;;;;;;5055103;28;20542;-92
2022/10/12 02:22:18;;;;;;;9.85;7.65;;;;;;;;;;5055297;28;20095;-92
2022/10/12 02:24:47;;;;;;;11.68;10.45;;;;;;;;;;5055150;28;20057;-93
2022/10/12 02:27:14;;;;;;;12.23;9.75;;;;;;;;;;5054998;28;20496;-92
2022/10/12 02:29:43;;;;;;;14.40;8.75;;;;;;;;;;5054842;28;20049;-92
2022/10/12 02:32:14;;;;;;;11.45;8.63;;;;;;;;;;5054953;28;20095;-92
2022/10/12 02:34:43;;;;;;;13.70;9.98;;;;;;;;;;5055074;28;20436;-92
2022/10/12 02:37:12;;;;;;;14.80;9.25;;;;;;;;;;5054618;28;20358;-92
2022/10/12 02:39:42;;;;;;;11.82;9.23;;;;;;;;;;5054880;28;20053;-92
2022/10/12 02:42:10;;;;;;;15.45;10.27;;;;;;;;;;5054559;28;20110;-92
2022/10/12 02:44:38;;;;;;;10.27;8.20;;;;;;;;;;5054577;28;20739;-92
2022/10/12 02:47:06;;;;;;;13.05;9.65;;;;;;;;;;5054901;28;20049;-93
2022/10/12 02:49:34;;;;;;;13.73;9.27;;;;;;;;;;5054772;28;20060;-92
2022/10/12 02:52:02;;;;;;;13.65;9.35;;;;;;;;;;5054514;28;20098;-92
2022/10/12 02:54:29;;;;;;;13.18;9.65;;;;;;;;;;5054448;28;20505;-92
2022/10/12 02:56:57;;;;;;;17.25;10.77;;;;;;;;;;5054775;28;20075;-92
2022/10/12 02:59:23;;;;;;;17.88;9.05;;;;;;;;;;5054663;28;20053;-92
2022/10/12 03:01:50;;;;;;;13.18;8.80;;;;;;;;;;5054388;28;20045;-92
2022/10/12 03:04:16;;;;;;;15.90;9.60;;;;;;;;;;5054169;28;20045;-92
2022/10/12 03:06:43;;;;;;;13.57;10.00;;;;;;;;;;5054053;28;20796;-92
2022/10/12 03:09:09;;;;;;;11.27;9.02;;;;;;;;;;5053962;28;20045;-92
2022/10/12 03:11:36;;;;;;;18.17;10.43;;;;;;;;;;5053998;28;20048;-92
2022/10/12 03:14:04;;;;;;;11.35;8.30;;;;;;;;;;5054183;28;20080;-91
2022/10/12 03:16:30;;;;;;;14.55;10.88;;;;;;;;;;5053639;28;20386;-92
2022/10/12 03:18:57;;;;;;;14.68;10.40;;;;;;;;;;5054201;28;20049;-91
2022/10/12 03:21:23;;;;;;;13.35;8.60;;;;;;;;;;5053496;28;20061;-91
2022/10/12 03:23:50;;;;;;;10.30;9.20;;;;;;;;;;5053644;28;20489;-92
2022/10/12 03:26:16;;;;;;;17.50;10.52;;;;;;;;;;5052379;28;20049;-92
2022/10/12 03:28:43;;;;;;;9.75;6.82;;;;;;;;;;5053977;28;20483;-91
2022/10/12 03:31:11;;;;;;;11.90;8.40;;;;;;;;;;5053729;28;20107;-91
2022/10/12 03:33:37;;;;;;;12.77;7.50;;;;;;;;;;5053812;28;20110;-92
2022/10/12 03:36:04;;;;;;;13.15;8.95;;;;;;;;;;5053637;28;20048;-91
2022/10/12 03:38:31;;;;;;;15.32;9.95;;;;;;;;;;5053277;28;20531;-92
2022/10/12 03:40:57;;;;;;;13.27;9.88;;;;;;;;;;5053226;28;20044;-91
2022/10/12 03:43:24;;;;;;;15.80;9.52;;;;;;;;;;5053479;28;20049;-91
2022/10/12 03:45:51;;;;;;;13.38;8.45;;;;;;;;;;5053309;28;20091;-92
2022/10/12 03:48:19;;;;;;;10.57;8.98;;;;;;;;;;5053581;28;20049;-92
2022/10/12 03:50:48;;;;;;;14.35;8.98;;;;;;;;;;5053108;28;20489;-92
2022/10/12 03:53:14;;;;;;;18.15;10.52;;;;;;;;;;5053020;28;20100;-91
2022/10/12 03:55:41;;;;;;;16.15;11.05;;;;;;;;;;5053249;28;20049;-91
2022/10/12 03:58:07;;;;;;;13.77;11.07;;;;;;;;;;5053577;28;20049;-92
2022/10/12 04:00:34;;;;;;;16.15;11.23;;;;;;;;;;5053248;28;20558;-92
2022/10/12 04:03:01;;;;;;;18.60;10.38;;;;;;;;;;5053175;28;20049;-92
2022/10/12 04:05:29;;;;;;;16.80;10.90;;;;;;;;;;5053399;28;20052;-91
2022/10/12 04:07:55;;;;;;;16.33;11.52;;;;;;;;;;5066324;28;20053;-91
2022/10/12 04:10:22;;;;;;;20.63;13.10;;;;;;;;;;5063559;28;20045;-92
2022/10/12 04:12:48;;;;;;;17.33;12.13;;;;;;;;;;5053779;28;20111;-91
2022/10/12 04:15:16;;;;;;;21.20;11.30;;;;;;;;;;5052779;28;20507;-92
2022/10/12 04:17:43;;;;;;;22.23;13.23;;;;;;;;;;5052727;28;20061;-91
2022/10/12 04:20:10;;;;;;;20.23;11.68;;;;;;;;;;5052844;28;20496;-92
2022/10/12 04:22:38;;;;;;;21.50;11.13;;;;;;;;;;5052588;28;20441;-92
2022/10/12 04:25:05;;;;;;;14.57;11.73;;;;;;;;;;5053081;28;20045;-91
2022/10/12 04:27:32;;;;;;;19.65;13.20;;;;;;;;;;5052941;28;20455;-91
2022/10/12 04:29:58;;;;;;;19.40;10.98;;;;;;;;;;5052921;28;20102;-91
2022/10/12 04:32:25;;;;;;;21.55;11.52;;;;;;;;;;5052529;28;20044;-91
2022/10/12 04:34:51;;;;;;;16.73;11.73;;;;;;;;;;5052621;28;20106;-92
2022/10/12 04:37:18;;;;;;;22.58;11.05;;;;;;;;;;5052209;28;20083;-92
2022/10/12 04:39:45;;;;;;;21.42;12.60;;;;;;;;;;5052660;28;20562;-92
2022/10/12 04:42:12;;;;;;;19.55;11.75;;;;;;;;;;5052781;28;20073;-92
2022/10/12 04:44:38;;;;;;;20.25;11.60;;;;;;;;;;5052283;28;20484;-92
2022/10/12 04:47:05;;;;;;;20.75;13.02;;;;;;;;;;5052736;28;20045;-91
2022/10/12 04:49:31;;;;;;;15.40;11.10;;;;;;;;;;5052478;28;20098;-92
2022/10/12 04:51:58;;;;;;;16.88;10.15;;;;;;;;;;5052551;28;20053;-92
2022/10/12 04:54:24;;;;;;;19.13;11.13;;;;;;;;;;5052703;28;20053;-93
2022/10/12 04:56:52;;;;;;;19.65;11.35;;;;;;;;;;5052619;28;20103;-92
2022/10/12 04:59:19;;;;;;;18.23;11.18;;;;;;;;;;5052509;28;20114;-92
2022/10/12 05:01:45;;;;;;;20.45;12.45;;;;;;;;;;5052243;28;20111;-91
2022/10/12 05:04:12;;;;;;;22.58;12.07;;;;;;;;;;5052202;28;20504;-92
2022/10/12 05:06:38;;;;;;;12.70;10.43;;;;;;;;;;5052314;28;20523;-91
2022/10/12 05:09:05;;;;;;;23.77;13.63;;;;;;;;;;5052653;28;20053;-92
2022/10/12 05:11:31;;;;;;;17.85;11.18;;;;;;;;;;5052675;28;20049;-92
2022/10/12 05:13:59;;;;;;;13.52;12.07;;;;;;;;;;5052290;28;20049;-92
2022/10/12 05:16:26;;;;;;;17.42;12.13;;;;;;;;;;5051842;28;20107;-92
2022/10/12 05:18:52;;;;;;;21.98;11.18;;;;;;;;;;5052106;28;20053;-92
2022/10/12 05:21:19;;;;;;;18.23;11.60;;;;;;;;;;5051846;28;20045;-91
2022/10/12 05:23:49;;;;;;;16.90;12.07;;;;;;;;;;5052219;28;20053;-91
2022/10/12 05:26:16;;;;;;;13.20;11.05;;;;;;;;;;5052046;28;20504;-92
2022/10/12 05:28:42;;;;;;;20.63;11.77;;;;;;;;;;5051985;28;20114;-91
2022/10/12 05:31:10;;;;;;;24.33;12.50;;;;;;;;;;5051881;28;20045;-91
2022/10/12 05:33:37;;;;;;;17.88;13.60;;;;;;;;;;5053921;28;20063;-91
2022/10/12 05:36:03;;;;;;;18.70;10.80;;;;;;;;;;5058966;28;20523;-91
2022/10/12 05:38:30;;;;;;;22.60;12.15;;;;;;;;;;5059806;28;20056;-92
2022/10/12 05:40:56;;;;;;;17.77;11.73;;;;;;;;;;5058711;28;20480;-92
2022/10/12 05:43:23;;;;;;;14.68;11.07;;;;;;;;;;5063840;28;20094;-92
2022/10/12 05:45:49;;;;;;;15.43;10.88;;;;;;;;;;5049772;28;20049;-92
2022/10/12 05:48:17;;;;;;;19.13;12.57;;;;;;;;;;5069901;28;20496;-92
2022/10/12 05:50:44;;;;;;;16.83;11.50;;;;;;;;;;5075522;28;20070;-92
2022/10/12 05:53:10;;;;;;;16.52;11.75;;;;;;;;;;5062593;28;20041;-92
2022/10/12 05:55:37;;;;;;;20.52;12.75;;;;;;;;;;5072054;28;20044;-92
2022/10/12 05:58:03;;;;;;;16.92;11.00;;;;;;;;;;5063368;28;20099;-92
2022/10/12 06:00:30;;;;;;;17.02;12.23;;;;;;;;;;5063183;28;20471;-92
2022/10/12 06:02:56;;;;;;;14.02;10.63;;;;;;;;;;5066795;28;20052;-92
2022/10/12 06:05:24;;;;;;;23.95;13.55;;;;;;;;;;5074848;28;20053;-93
2022/10/12 06:07:51;;;;;;;22.58;15.05;;;;;;;;;;5064843;28;20041;-93
2022/10/12 06:10:17;;;;;;;22.60;11.98;;;;;;;;;;5067825;28;20048;-92
2022/10/12 06:12:44;;;;;;;19.63;11.02;;;;;;;;;;5060852;28;20507;-92
2022/10/12 06:15:10;;;;;;;22.63;12.30;;;;;;;;;;5062316;28;20045;-92
2022/10/12 06:17:37;;;;;;;16.98;11.48;;;;;;;;;;5065151;28;20060;-92
2022/10/12 06:20:04;;;;;;;18.38;12.70;;;;;;;;;;5063960;28;20098;-92
2022/10/12 06:22:31;;;;;;;18.77;11.57;;;;;;;;;;5066669;28;20049;-92
2022/10/12 06:24:58;;;;;;;15.23;11.52;;;;;;;;;;5064428;28;20045;-91
2022/10/12 06:27:25;;;;;;;18.60;12.45;;;;;;;;;;5068591;28;20037;-91
2022/10/12 06:29:51;;;;;;;17.38;11.23;;;;;;;;;;5062221;28;20530;-92
2022/10/12 06:32:17;;;;;;;14.65;10.68;;;;;;;;;;5063478;28;20105;-93
2022/10/12 06:34:44;;;;;;;20.33;11.88;;;;;;;;;;5053932;28;20099;-93
2022/10/12 06:37:10;;;;;;;20.60;13.35;;;;;;;;;;5054073;28;20107;-92
2022/10/12 06:39:38;;;;;;;22.17;11.55;;;;;;;;;;5054062;28;20114;-93
2022/10/12 06:42:06;;;;;;;22.25;11.88;;;;;;;;;;5059787;28;20097;-92
2022/10/12 06:44:33;;;;;;;16.75;11.35;;;;;;;;;;5073650;28;20519;-92
2022/10/12 06:46:59;;;;;;;17.60;11.10;;;;;;;;;;5074010;28;20040;-92
2022/10/12 06:49:26;;;;;;;18.63;12.05;;;;;;;;;;5073985;28;20102;-92
2022/10/12 06:51:52;;;;;;;16.35;12.00;;;;;;;;;;5070865;28;20049;-92
2022/10/12 06:54:19;;;;;;;17.33;14.75;;;;;;;;;;5053476;28;20045;-91
2022/10/12 06:56:47;;;;;;;14.50;9.82;;;;;;;;;;5054145;28;20118;-92
2022/10/12 06:59:13;;;;;;;20.42;13.30;;;;;;;;;;5053136;28;20557;-91
2022/10/12 07:01:40;;;;;;;21.27;12.40;;;;;;;;;;5054192;28;20045;-92
2022/10/12 07:04:06;;;;;;;21.05;12.60;;;;;;;;;;5053685;28;20106;-92
2022/10/12 07:06:33;;;;;;;19.77;13.48;;;;;;;;;;5064501;28;20052;-91
2022/10/12 07:09:00;;;;;;;16.25;12.20;;;;;;;;;;5073222;28;20106;-91
2022/10/12 07:11:26;;;;;;;15.82;11.48;;;;;;;;;;5073404;28;20048;-91
2022/10/12 07:13:54;;;;;;;18.48;12.02;;;;;;;;;;5072545;28;20053;-91
2022/10/12 07:16:20;;;;;;;16.63;12.02;;;;;;;;;;5073211;28;20554;-91
2022/10/12 07:18:47;;;;;;;20.33;13.35;;;;;;;;;;5070287;28;20118;-91
2022/10/12 07:21:13;;;;;;;18.55;13.23;;;;;;;;;;5060882;28;20044;-91
2022/10/12 07:23:40;;;;;;;26.02;16.23;;;;;;;;;;5063963;28;20045;-93
2022/10/12 07:26:07;;;;;;;21.13;12.25;;;;;;;;;;5061971;28;20045;-93
2022/10/12 07:28:33;;;;;;;17.17;11.13;;;;;;;;;;5055057;28;20060;-92
2022/10/12 07:31:02;;;;;;;17.17;13.07;;;;;;;;;;5073242;28;20049;-90
2022/10/12 07:33:31;;;;;;;15.25;9.23;;;;;;;;;;5058620;28;20079;-90
2022/10/12 07:35:57;;;;;;;14.25;10.57;;;;;;;;;;5052907;28;20713;-91
2022/10/12 07:38:24;;;;;;;14.15;10.98;;;;;;;;;;5052950;28;20102;-91
2022/10/12 07:40:51;;;;;;;19.90;10.70;;;;;;;;;;5052680;28;20057;-91
2022/10/12 07:43:17;;;;;;;15.82;11.43;;;;;;;;;;5052421;28;20103;-91
2022/10/12 07:45:44;;;;;;;18.63;10.93;;;;;;;;;;5052755;28;20057;-90
2022/10/12 07:48:12;;;;;;;16.45;12.13;;;;;;;;;;5052233;28;20052;-90
2022/10/12 07:50:38;;;;;;;18.02;11.77;;;;;;;;;;5052574;28;20488;-91
2022/10/12 07:53:05;;;;;;;13.45;11.23;;;;;;;;;;5062399;28;20049;-92
2022/10/12 07:55:31;;;;;;;18.63;11.45;;;;;;;;;;5072824;28;20094;-91
2022/10/12 07:57:58;;;;;;;13.70;11.32;;;;;;;;;;5072347;28;20060;-88
2022/10/12 08:00:25;;;;;;;16.45;11.38;;;;;;;;;;5069309;28;20082;-91
2022/10/12 08:02:51;;;;;;;15.40;11.13;;;;;;;;;;5065550;28;20049;-88
2022/10/12 08:05:21;;;;;;;13.73;9.80;;;;;;;;;;5071978;28;20049;-89
2022/10/12 08:07:47;;;;;;;14.95;10.20;;;;;;;;;;5060422;28;20099;-89
2022/10/12 08:10:14;;;;;;;11.65;8.90;;;;;;;;;;5073488;28;20110;-88
2022/10/12 08:12:40;;;;;;;15.93;10.02;;;;;;;;;;5069059;28;20075;-89
2022/10/12 08:15:08;;;;;;;16.17;9.70;;;;;;;;;;5051392;28;20488;-87
2022/10/12 08:17:37;;;;;;;12.82;10.73;;;;;;;;;;5050991;28;20066;-88
2022/10/12 08:20:04;;;;;;;13.52;10.60;;;;;;;;;;5051002;28;20049;-88
2022/10/12 08:22:32;;;;;;;14.90;12.27;;;;;;;;;;5063632;28;20497;-89
2022/10/12 08:24:58;;;;;;;15.50;10.35;;;;;;;;;;5065903;28;20060;-89
2022/10/12 08:27:25;;;;;;;13.95;11.45;;;;;;;;;;5063100;28;20052;-89
2022/10/12 08:29:52;;;;;;;14.30;11.15;;;;;;;;;;5051401;28;20106;-90
2022/10/12 08:32:18;;;;;;;19.02;10.10;;;;;;;;;;5052746;28;20053;-89
2022/10/12 08:34:44;;;;;;;11.13;8.98;;;;;;;;;;5071313;28;20044;-88
2022/10/12 08:37:11;;;;;;;13.75;10.15;;;;;;;;;;5071303;28;20048;-88
2022/10/12 08:39:39;;;;;;;11.90;8.13;;;;;;;;;;5053470;28;20103;-89
2022/10/12 08:42:12;;;;;;;14.23;10.40;;;;;;;;;;5068125;28;20065;-89
2022/10/12 08:44:45;;;;;;;14.85;9.55;;;;;;;;;;5061752;28;20045;-89
2022/10/12 08:47:15;;;;;;;11.68;8.27;;;;;;;;;;5070515;28;20070;-89
2022/10/12 08:49:43;;;;;;;10.52;8.07;;;;;;;;;;5050862;28;20054;-89
2022/10/12 08:52:14;;;;;;;10.45;8.13;;;;;;;;;;5061752;28;20049;-89
2022/10/12 08:54:45;;;;;;;8.55;6.20;;;;;;;;;;5051451;28;20049;-88
2022/10/12 08:57:15;;;;;;;13.77;9.35;;;;;;;;;;5055956;28;20472;-88
2022/10/12 08:59:42;;;;;;;12.95;9.25;;;;;;;;;;5069866;28;20466;-88
2022/10/12 09:02:21;;;;;;;14.63;9.65;;;;;;;;;;5066200;28;20053;-88
2022/10/12 09:04:50;;;;;;;12.27;8.95;;;;;;;;;;5065020;28;20554;-89
2022/10/12 09:07:19;;;;;;;12.77;9.82;;;;;;;;;;5052435;28;20056;-88
2022/10/12 09:09:57;;;;;;;12.50;9.00;;;;;;;;;;5069966;28;20101;-86
2022/10/12 09:12:29;;;;;;;19.33;11.30;;;;;;;;;;5067828;28;20053;-88
2022/10/12 09:15:00;;;;;;;12.48;9.25;;;;;;;;;;5051294;28;20049;-89
2022/10/12 09:17:28;;;;;;;15.00;10.30;;;;;;;;;;5050377;28;20172;-88
2022/10/12 09:20:00;;;;;;;13.15;9.98;;;;;;;;;;5063159;28;20458;-88
2022/10/12 09:22:27;;;;;;;13.20;9.90;;;;;;;;;;5071369;28;20052;-88
2022/10/12 09:24:56;;;;;;;10.07;8.55;;;;;;;;;;5074639;28;20040;-88
2022/10/12 09:27:23;;;;;;;10.90;8.40;;;;;;;;;;5074108;28;20575;-88
2022/10/12 09:29:51;;;;;;;13.00;8.40;;;;;;;;;;5073365;28;20053;-88
2022/10/12 09:32:41;;;;;;;11.20;6.90;;;;;;;;;;5074936;28;20052;-89
2022/10/12 09:35:10;;;;;;;11.50;9.02;;;;;;;;;;5058811;28;20048;-89
2022/10/12 09:37:37;;;;;;;11.10;7.63;;;;;;;;;;5074156;28;20068;-88
2022/10/12 09:40:06;;;;;;;10.30;8.00;;;;;;;;;;5074454;28;20565;-88
2022/10/12 09:42:32;;;;;;;11.57;7.20;;;;;;;;;;5074324;28;20053;-88
2022/10/12 09:45:01;;;;;;;12.60;9.65;;;;;;;;;;5074210;28;20480;-87
2022/10/12 09:47:28;;;;;;;11.38;9.55;;;;;;;;;;5073996;28;20106;-88
2022/10/12 09:49:57;;;;;;;10.85;9.00;;;;;;;;;;5055343;28;20052;-87
2022/10/12 09:52:26;;;;;;;12.57;9.10;;;;;;;;;;5054408;28;20052;-88
2022/10/12 09:54:53;;;;;;;10.82;7.82;;;;;;;;;;5054499;28;20045;-88
2022/10/12 09:57:23;;;;;;;12.52;8.93;;;;;;;;;;5053955;28;20107;-87
2022/10/12 09:59:49;;;;;;;9.70;8.60;;;;;;;;;;5054247;28;20106;-88
2022/10/12 10:02:17;;;;;;;12.93;7.55;;;;;;;;;;5054178;28;20542;-87
2022/10/12 10:04:44;;;;;;;12.95;10.18;;;;;;;;;;5054136;28;20044;-88
2022/10/12 10:07:29;;;;;;;9.50;8.32;;;;;;;;;;5053948;28;20091;-87
2022/10/12 10:10:15;;;;;;;10.35;7.82;;;;;;;;;;5053934;28;20053;-87
2022/10/12 10:12:48;;;;;;;10.25;7.45;;;;;;;;;;5053502;28;20094;-87
2022/10/12 10:15:18;;;;;;;13.07;7.15;;;;;;;;;;5073673;28;20043;-88
2022/10/12 10:17:48;;;;;;;12.60;8.55;;;;;;;;;;5072483;28;20048;-88
2022/10/12 10:20:22;;;;;;;13.93;8.30;;;;;;;;;;5073599;28;20448;-88
2022/10/12 10:22:48;;;;;;;11.98;7.00;;;;;;;;;;5074071;28;20056;-88
2022/10/12 10:25:19;;;;;;;10.60;7.35;;;;;;;;;;5073450;28;20048;-87
2022/10/12 10:27:49;;;;;;;8.60;6.45;;;;;;;;;;5073257;28;20451;-87
2022/10/12 10:30:21;;;;;;;11.38;8.32;;;;;;;;;;5073707;28;20052;-88
2022/10/12 10:32:48;;;;;;;10.13;7.60;;;;;;;;;;5073199;28;20060;-87
2022/10/12 10:35:20;;;;;;;9.88;7.93;;;;;;;;;;5069439;28;20045;-87
2022/10/12 10:37:48;;;;;;;13.77;9.90;;;;;;;;;;5054116;28;20060;-87
2022/10/12 10:40:17;;;;;;;15.23;8.15;;;;;;;;;;5070200;28;20129;-87
2022/10/12 10:42:49;;;;;;;11.70;8.30;;;;;;;;;;5059214;28;20083;-87
2022/10/12 10:45:22;;;;;;;12.18;9.18;;;;;;;;;;5068093;28;20049;-87
2022/10/12 10:47:48;;;;;;;10.85;8.55;;;;;;;;;;5053154;28;20060;-87
2022/10/12 10:50:23;;;;;;;12.20;9.25;;;;;;;;;;5060965;28;20047;-88
2022/10/12 10:52:54;;;;;;;10.10;8.57;;;;;;;;;;5073570;28;20101;-87
2022/10/12 10:55:21;;;;;;;11.32;8.15;;;;;;;;;;5062563;28;20124;-88
2022/10/12 10:57:50;;;;;;;10.85;8.15;;;;;;;;;;5069204;28;20102;-87
2022/10/12 11:00:19;;;;;;;11.25;7.97;;;;;;;;;;5056019;28;20049;-88
2022/10/12 11:02:50;;;;;;;13.25;7.40;;;;;;;;;;5058691;28;20052;-88
2022/10/12 11:05:19;;;;;;;12.70;7.82;;;;;;;;;;5054872;28;20045;-88
2022/10/12 11:07:48;;;;;;;11.90;8.10;;;;;;;;;;5052883;28;20110;-88
2022/10/12 11:10:21;;;;;;;13.10;9.80;;;;;;;;;;5069592;28;20048;-88
2022/10/12 11:12:50;;;;;;;9.23;7.38;;;;;;;;;;5073006;28;20064;-88
2022/10/12 11:15:20;;;;;;;10.93;8.32;;;;;;;;;;5072381;28;20545;-88
2022/10/12 11:17:50;;;;;;;12.40;7.18;;;;;;;;;;5072691;28;20106;-89
2022/10/12 11:20:30;;;;;;;14.55;9.93;;;;;;;;;;5071835;28;20056;-89
2022/10/12 11:22:58;;;;;;;13.40;9.05;;;;;;;;;;5072532;28;20055;-89
2022/10/12 11:25:28;;;;;;;13.05;8.02;;;;;;;;;;5072575;28;20040;-90
2022/10/12 11:27:55;;;;;;;11.93;8.05;;;;;;;;;;5054161;28;20401;-88
2022/10/12 11:30:22;;;;;;;10.27;8.23;;;;;;;;;;5068519;28;20052;-88
2022/10/12 11:32:53;;;;;;;11.98;9.50;;;;;;;;;;5072496;28;20089;-89
2022/10/12 11:35:23;;;;;;;12.73;8.57;;;;;;;;;;5071471;28;20094;-89
2022/10/12 11:37:53;;;;;;;16.95;9.38;;;;;;;;;;5072489;28;20444;-89
2022/10/12 11:40:23;;;;;;;12.85;7.47;;;;;;;;;;5072079;28;20125;-90
2022/10/12 11:42:49;;;;;;;10.35;8.02;;;;;;;;;;5072150;28;20062;-88
2022/10/12 11:45:19;;;;;;;10.77;8.40;;;;;;;;;;5063044;28;20048;-89
2022/10/12 11:47:48;;;;;;;11.55;9.20;;;;;;;;;;5056434;28;20479;-88
2022/10/12 11:50:20;;;;;;;10.68;9.40;;;;;;;;;;5061670;28;20053;-89
2022/10/12 11:52:48;;;;;;;9.90;7.47;;;;;;;;;;5051306;28;20102;-90
2022/10/12 11:55:25;;;;;;;9.15;7.82;;;;;;;;;;5053142;28;20103;-90
2022/10/12 11:57:53;;;;;;;9.75;6.78;;;;;;;;;;5052809;28;20052;-89
2022/10/12 12:00:22;;;;;;;10.70;7.20;;;;;;;;;;5060501;28;20048;-89
2022/10/12 12:02:51;;;;;;;11.68;7.38;;;;;;;;;;5074121;28;20084;-90
2022/10/12 12:05:19;;;;;;;11.48;8.30;;;;;;;;;;5058892;28;20512;-90
2022/10/12 12:07:47;;;;;;;11.43;7.78;;;;;;;;;;5052260;28;20049;-90
2022/10/12 12:10:34;;;;;;;9.30;8.35;;;;;;;;;;5058468;28;20114;-89
2022/10/12 12:13:10;;;;;;;13.43;8.55;;;;;;;;;;5064382;28;20078;-90
2022/10/12 12:15:36;;;;;;;9.85;7.78;;;;;;;;;;5054615;28;20053;-91
2022/10/12 12:18:11;;;;;;;8.98;5.82;;;;;;;;;;5052772;28;20122;-89
2022/10/12 12:20:56;;;;;;;10.65;8.73;;;;;;;;;;5053171;28;20503;-89
2022/10/12 12:23:26;;;;;;;10.93;9.07;;;;;;;;;;5052561;28;20630;-89
2022/10/12 12:26:04;;;;;;;9.63;7.70;;;;;;;;;;5053400;28;20065;-90
2022/10/12 12:28:32;;;;;;;10.65;7.60;;;;;;;;;;5052626;28;20127;-90
2022/10/12 12:31:00;;;;;;;10.63;7.15;;;;;;;;;;5052520;28;20049;-90
2022/10/12 12:33:28;;;;;;;11.63;7.50;;;;;;;;;;5051990;28;20045;-89
2022/10/12 12:35:56;;;;;;;12.50;8.27;;;;;;;;;;5061849;28;20078;-89
2022/10/12 12:38:24;;;;;;;12.32;6.95;;;;;;;;;;5067894;28;20105;-90
2022/10/12 12:40:56;;;;;;;11.48;9.48;;;;;;;;;;5059102;28;21358;-90
2022/10/12 12:43:36;;;;;;;8.95;7.07;;;;;;;;;;5051897;28;20056;-89
2022/10/12 12:46:03;;;;;;;9.35;7.32;;;;;;;;;;5051614;28;20047;-90
2022/10/12 12:48:48;;;;;;;10.45;8.18;;;;;;;;;;5051469;28;20079;-89
2022/10/12 12:51:16;;;;;;;10.45;7.60;;;;;;;;;;5051513;28;20056;-90
2022/10/12 12:53:46;;;;;;;11.70;9.43;;;;;;;;;;5051207;28;20068;-89
2022/10/12 12:56:18;;;;;;;9.32;6.00;;;;;;;;;;5067067;28;20381;-90
2022/10/12 12:59:00;;;;;;;7.93;6.45;;;;;;;;;;5067736;28;20107;-90
2022/10/12 13:01:41;;;;;;;12.57;7.65;;;;;;;;;;5053491;28;20127;-90
2022/10/12 13:04:19;;;;;;;9.43;7.40;;;;;;;;;;5056172;28;20053;-91
2022/10/12 13:07:07;;;;;;;11.57;8.13;;;;;;;;;;5075499;28;20466;-89
2022/10/12 13:09:48;;;;;;;9.68;6.97;;;;;;;;;;5075370;28;20450;-88
2022/10/12 13:12:32;;;;;;;11.13;8.20;;;;;;;;;;5075560;28;20048;-89
2022/10/12 13:15:04;;;;;;;10.50;7.22;;;;;;;;;;5075332;28;20113;-90
2022/10/12 13:17:37;;;;;;;9.93;7.38;;;;;;;;;;5075117;28;20057;-90
2022/10/12 13:20:10;;;;;;;9.75;6.18;;;;;;;;;;5075137;28;20052;-88
2022/10/12 13:22:37;;;;;;;9.70;6.93;;;;;;;;;;5075232;28;20052;-89
2022/10/12 13:25:05;;;;;;;8.07;7.22;;;;;;;;;;5074534;28;20060;-89
2022/10/12 13:27:36;;;;;;;7.43;6.55;;;;;;;;;;5072506;28;20106;-90
2022/10/12 13:30:08;;;;;;;15.30;8.82;;;;;;;;;;5061267;28;20488;-89
2022/10/12 13:32:42;;;;;;;11.18;7.90;;;;;;;;;;5054919;28;20056;-89
2022/10/12 13:35:14;;;;;;;9.85;7.30;;;;;;;;;;5054656;28;20059;-89
2022/10/12 13:37:42;;;;;;;10.35;7.70;;;;;;;;;;5062083;28;20044;-89
2022/10/12 13:40:24;;;;;;;9.23;8.02;;;;;;;;;;5072081;28;20132;-90
2022/10/12 13:42:51;;;;;;;11.43;7.28;;;;;;;;;;5073406;28;20048;-90
2022/10/12 13:45:19;;;;;;;10.48;7.50;;;;;;;;;;5065495;28;20049;-88
2022/10/12 13:47:45;;;;;;;8.40;5.88;;;;;;;;;;5074047;28;20106;-89
2022/10/12 13:50:16;;;;;;;8.88;6.55;;;;;;;;;;5065697;28;20094;-90
2022/10/12 13:52:51;;;;;;;10.07;7.60;;;;;;;;;;5057910;28;20132;-90
2022/10/12 13:55:18;;;;;;;11.32;8.65;;;;;;;;;;5061886;28;20052;-90
2022/10/12 13:57:47;;;;;;;11.90;7.43;;;;;;;;;;5059059;28;20108;-89
2022/10/12 14:00:20;;;;;;;12.30;8.57;;;;;;;;;;5061106;28;20056;-89
2022/10/12 14:02:53;;;;;;;10.93;8.00;;;;;;;;;;5073758;28;20057;-90
2022/10/12 14:05:21;;;;;;;14.07;8.82;;;;;;;;;;5067221;28;20044;-88
2022/10/12 14:07:49;;;;;;;9.88;7.35;;;;;;;;;;5073257;28;20045;-89
2022/10/12 14:10:18;;;;;;;10.40;6.65;;;;;;;;;;5058457;28;20048;-89
2022/10/12 14:12:45;;;;;;;11.85;6.85;;;;;;;;;;5057997;28;20044;-89
2022/10/12 14:15:12;;;;;;;11.73;8.10;;;;;;;;;;5066754;28;20099;-89
2022/10/12 14:17:44;;;;;;;11.05;7.63;;;;;;;;;;5054315;28;20552;-88
2022/10/12 14:20:15;;;;;;;11.80;7.95;;;;;;;;;;5066519;28;20136;-88
2022/10/12 14:22:46;;;;;;;10.05;7.15;;;;;;;;;;5057121;28;20049;-91
2022/10/12 14:25:15;;;;;;;10.60;7.88;;;;;;;;;;5061115;28;20545;-90
2022/10/12 14:27:42;;;;;;;12.80;8.00;;;;;;;;;;5056605;28;20579;-88
2022/10/12 14:30:16;;;;;;;13.23;8.57;;;;;;;;;;5057381;28;20112;-88
2022/10/12 14:32:44;;;;;;;11.23;6.93;;;;;;;;;;5073312;28;20049;-87
2022/10/12 14:35:12;;;;;;;7.97;7.03;;;;;;;;;;5072114;28;20037;-88